createdAt,value
2018-11-25T00:00:16.673Z,99.3
2018-11-25T00:01:16.734Z,99.3
2018-11-25T00:02:16.997Z,99.3
2018-11-25T00:03:16.267Z,99.3
2018-11-25T00:04:16.540Z,99.3
2018-11-25T00:05:16.802Z,99.3
2018-11-25T00:06:17.081Z,99.4
2018-11-25T00:07:16.352Z,99.4
2018-11-25T00:08:16.621Z,99.4
2018-11-25T00:09:16.889Z,99.3
2018-11-25T00:10:17.170Z,99.3
2018-11-25T00:11:17.224Z,99.3
2018-11-25T00:12:16.486Z,99.3
2018-11-25T00:13:16.769Z,99.3
2018-11-25T00:14:17.033Z,99.3
2018-11-25T00:15:16.310Z,99.3
2018-11-25T00:16:16.571Z,99.3
2018-11-25T00:17:16.848Z,99.3
2018-11-25T00:18:18.275Z,99.3
2018-11-25T00:19:16.572Z,99.3
2018-11-25T00:20:16.852Z,99.3
2018-11-25T00:21:16.907Z,99.3
2018-11-25T00:22:17.183Z,99.3
2018-11-25T00:23:16.455Z,99.4
2018-11-25T00:24:16.727Z,99.3
2018-11-25T00:25:17.006Z,99.2
2018-11-25T00:26:16.266Z,99.2
2018-11-25T00:27:16.528Z,99.2
2018-11-25T00:28:16.785Z,99.2
2018-11-25T00:29:17.056Z,99.2
2018-11-25T00:30:16.340Z,99.2
2018-11-25T00:31:16.395Z,99.3
2018-11-25T00:32:16.671Z,99.3
2018-11-25T00:33:16.942Z,99.3
2018-11-25T00:34:17.223Z,99.2
2018-11-25T00:35:16.502Z,99.3
2018-11-25T00:36:16.776Z,99.3
2018-11-25T00:37:17.050Z,99.3
2018-11-25T00:38:16.320Z,99.3
2018-11-25T00:39:16.590Z,99.3
2018-11-25T00:40:16.875Z,99.3
2018-11-25T00:41:16.932Z,99.3
2018-11-25T00:42:17.209Z,99.3
2018-11-25T00:43:16.479Z,99.3
2018-11-25T00:44:16.744Z,99.3
2018-11-25T00:45:17.345Z,99.2
2018-11-25T00:46:16.623Z,99.2
2018-11-25T00:47:16.910Z,99.2
2018-11-25T00:48:17.194Z,99.2
2018-11-25T00:49:16.461Z,99.3
2018-11-25T00:50:16.729Z,99.3
2018-11-25T00:51:16.792Z,99.3
2018-11-25T00:52:17.064Z,99.4
2018-11-25T00:53:16.333Z,99.3
2018-11-25T00:54:16.613Z,99.3
2018-11-25T00:55:16.909Z,99.3
2018-11-25T00:56:17.183Z,99.3
2018-11-25T00:57:16.444Z,99.2
2018-11-25T00:58:16.723Z,99.3
2018-11-25T00:59:16.995Z,99.4
2018-11-25T01:00:16.268Z,99.4
2018-11-25T01:01:16.367Z,99.4
2018-11-25T01:02:16.708Z,100.0
2018-11-25T01:03:16.971Z,100.0
2018-11-25T01:04:17.238Z,100.0
2018-11-25T01:05:16.505Z,99.3
2018-11-25T01:06:16.778Z,99.3
2018-11-25T01:07:17.056Z,99.3
2018-11-25T01:08:16.332Z,99.3
2018-11-25T01:09:16.598Z,99.3
2018-11-25T01:10:16.875Z,99.3
2018-11-25T01:11:16.958Z,99.3
2018-11-25T01:12:17.226Z,99.3
2018-11-25T01:13:16.498Z,99.2
2018-11-25T01:14:16.764Z,99.2
2018-11-25T01:15:17.062Z,99.2
2018-11-25T01:16:16.334Z,99.3
2018-11-25T01:17:16.610Z,99.2
2018-11-25T01:18:16.882Z,99.2
2018-11-25T01:19:17.152Z,99.2
2018-11-25T01:20:16.517Z,99.2
2018-11-25T01:21:16.477Z,99.2
2018-11-25T01:22:16.744Z,99.1
2018-11-25T01:23:17.358Z,99.2
2018-11-25T01:24:16.655Z,99.3
2018-11-25T01:25:16.959Z,99.2
2018-11-25T01:26:17.229Z,99.0
2018-11-25T01:27:16.495Z,99.0
2018-11-25T01:28:16.764Z,99.0
2018-11-25T01:29:17.167Z,99.0
2018-11-25T01:30:16.471Z,99.2
2018-11-25T01:31:16.510Z,99.2
2018-11-25T01:32:16.791Z,99.2
2018-11-25T01:33:17.056Z,99.2
2018-11-25T01:34:16.335Z,99.2
2018-11-25T01:35:16.609Z,99.2
2018-11-25T01:36:16.886Z,99.2
2018-11-25T01:37:17.153Z,99.2
2018-11-25T01:38:16.447Z,99.2
2018-11-25T01:39:16.729Z,99.2
2018-11-25T01:40:17.027Z,99.2
2018-11-25T01:41:17.057Z,99.2
2018-11-25T01:42:16.324Z,99.2
2018-11-25T01:43:16.598Z,99.2
2018-11-25T01:44:16.868Z,99.2
2018-11-25T01:45:17.152Z,99.2
2018-11-25T01:46:16.426Z,99.3
2018-11-25T01:47:16.691Z,99.3
2018-11-25T01:48:16.968Z,99.3
2018-11-25T01:49:17.245Z,99.3
2018-11-25T01:50:16.524Z,99.3
2018-11-25T01:51:16.560Z,99.3
2018-11-25T01:52:16.816Z,99.3
2018-11-25T01:53:17.091Z,99.3
2018-11-25T01:54:16.356Z,99.3
2018-11-25T01:55:16.980Z,99.3
2018-11-25T01:56:17.248Z,99.3
2018-11-25T01:57:16.543Z,99.3
2018-11-25T01:58:16.807Z,99.3
2018-11-25T01:59:17.096Z,99.3
2018-11-25T02:00:16.384Z,99.3
2018-11-25T02:01:16.441Z,99.4
2018-11-25T02:02:16.697Z,99.4
2018-11-25T02:03:16.963Z,99.5
2018-11-25T02:04:17.239Z,99.5
2018-11-25T02:05:16.500Z,99.5
2018-11-25T02:06:16.781Z,99.5
2018-11-25T02:07:17.051Z,99.5
2018-11-25T02:08:16.319Z,99.5
2018-11-25T02:09:16.576Z,99.5
2018-11-25T02:10:16.859Z,99.5
2018-11-25T02:11:16.915Z,99.5
2018-11-25T02:12:17.179Z,99.5
2018-11-25T02:13:16.447Z,99.5
2018-11-25T02:14:16.710Z,99.5
2018-11-25T02:15:17.004Z,99.5
2018-11-25T02:16:16.280Z,99.3
2018-11-25T02:17:16.553Z,99.3
2018-11-25T02:18:16.816Z,99.4
2018-11-25T02:19:17.088Z,99.5
2018-11-25T02:20:16.376Z,99.5
2018-11-25T02:21:16.416Z,99.5
2018-11-25T02:22:16.679Z,99.5
2018-11-25T02:23:16.951Z,99.5
2018-11-25T02:24:17.234Z,99.5
2018-11-25T02:25:16.540Z,99.6
2018-11-25T02:26:16.819Z,99.5
2018-11-25T02:27:17.084Z,99.6
2018-11-25T02:28:16.363Z,99.6
2018-11-25T02:29:16.631Z,99.6
2018-11-25T02:30:16.953Z,99.6
2018-11-25T02:31:16.951Z,99.5
2018-11-25T02:32:17.217Z,99.5
2018-11-25T02:33:16.481Z,99.5
2018-11-25T02:34:16.757Z,99.5
2018-11-25T02:35:17.040Z,99.4
2018-11-25T02:36:16.317Z,99.4
2018-11-25T02:37:16.583Z,99.3
2018-11-25T02:38:16.852Z,99.2
2018-11-25T02:39:17.124Z,99.2
2018-11-25T02:40:16.409Z,99.2
2018-11-25T02:41:16.461Z,99.2
2018-11-25T02:42:16.723Z,99.2
2018-11-25T02:43:16.989Z,99.2
2018-11-25T02:44:17.257Z,99.2
2018-11-25T02:45:16.534Z,99.4
2018-11-25T02:46:16.804Z,99.4
2018-11-25T02:47:17.080Z,99.5
2018-11-25T02:48:16.349Z,99.4
2018-11-25T02:49:16.619Z,99.5
2018-11-25T02:50:16.899Z,99.6
2018-11-25T02:51:16.938Z,99.8
2018-11-25T02:52:17.211Z,99.8
2018-11-25T02:53:16.480Z,99.8
2018-11-25T02:54:16.746Z,99.8
2018-11-25T02:55:17.028Z,99.8
2018-11-25T02:56:16.293Z,99.8
2018-11-25T02:57:16.564Z,99.8
2018-11-25T02:58:16.835Z,100.0
2018-11-25T02:59:17.119Z,100.0
2018-11-25T03:00:16.424Z,100.0
2018-11-25T03:01:16.466Z,100.0
2018-11-25T03:02:16.737Z,100.0
2018-11-25T03:03:16.999Z,100.0
2018-11-25T03:04:16.285Z,100.0
2018-11-25T03:05:16.552Z,100.0
2018-11-25T03:06:16.817Z,100.0
2018-11-25T03:07:17.087Z,100.0
2018-11-25T03:08:16.348Z,100.0
2018-11-25T03:09:16.619Z,100.0
2018-11-25T03:10:16.914Z,100.0
2018-11-25T03:11:16.970Z,100.0
2018-11-25T03:12:17.564Z,100.0
2018-11-25T03:13:16.832Z,100.0
2018-11-25T03:14:17.100Z,100.0
2018-11-25T03:15:16.365Z,100.0
2018-11-25T03:16:16.645Z,100.0
2018-11-25T03:17:16.917Z,100.0
2018-11-25T03:18:17.208Z,100.0
2018-11-25T03:19:16.493Z,100.0
2018-11-25T03:20:16.785Z,99.9
2018-11-25T03:21:16.840Z,99.9
2018-11-25T03:22:17.108Z,100.0
2018-11-25T03:23:16.374Z,99.9
2018-11-25T03:24:16.658Z,99.9
2018-11-25T03:25:16.951Z,99.9
2018-11-25T03:26:17.215Z,100.0
2018-11-25T03:27:16.490Z,99.9
2018-11-25T03:28:16.754Z,99.9
2018-11-25T03:29:17.011Z,100.0
2018-11-25T03:30:16.299Z,99.9
2018-11-25T03:31:16.350Z,99.8
2018-11-25T03:32:16.625Z,99.8
2018-11-25T03:33:17.290Z,99.9
2018-11-25T03:34:16.555Z,99.9
2018-11-25T03:35:16.833Z,99.9
2018-11-25T03:36:17.105Z,100.0
2018-11-25T03:37:16.381Z,100.0
2018-11-25T03:38:16.648Z,99.9
2018-11-25T03:39:16.914Z,99.9
2018-11-25T03:40:17.199Z,99.8
2018-11-25T03:41:17.250Z,99.8
2018-11-25T03:42:16.517Z,99.8
2018-11-25T03:43:16.789Z,99.8
2018-11-25T03:44:17.061Z,99.9
2018-11-25T03:45:16.344Z,99.8
2018-11-25T03:46:16.618Z,99.8
2018-11-25T03:47:16.890Z,99.9
2018-11-25T03:48:17.169Z,99.8
2018-11-25T03:49:16.434Z,99.8
2018-11-25T03:50:16.731Z,99.8
2018-11-25T03:51:16.780Z,99.8
2018-11-25T03:52:17.043Z,99.8
2018-11-25T03:53:16.323Z,99.8
2018-11-25T03:54:16.590Z,99.8
2018-11-25T03:55:16.911Z,99.8
2018-11-25T03:56:17.185Z,99.8
2018-11-25T03:57:16.452Z,99.8
2018-11-25T03:58:16.729Z,99.8
2018-11-25T03:59:16.987Z,99.8
2018-11-25T04:00:17.273Z,99.8
2018-11-25T04:01:16.335Z,99.8
2018-11-25T04:02:16.603Z,99.7
2018-11-25T04:03:16.887Z,99.7
2018-11-25T04:04:17.148Z,99.7
2018-11-25T04:05:16.440Z,99.7
2018-11-25T04:06:16.718Z,99.7
2018-11-25T04:07:16.987Z,99.7
2018-11-25T04:08:17.662Z,99.7
2018-11-25T04:09:16.938Z,99.7
2018-11-25T04:10:17.283Z,99.7
2018-11-25T04:11:16.347Z,99.7
2018-11-25T04:12:16.635Z,99.8
2018-11-25T04:13:16.907Z,99.6
2018-11-25T04:14:17.177Z,99.6
2018-11-25T04:15:16.447Z,99.5
2018-11-25T04:16:16.720Z,99.5
2018-11-25T04:17:16.994Z,99.6
2018-11-25T04:18:16.266Z,99.5
2018-11-25T04:19:16.545Z,99.5
2018-11-25T04:20:16.816Z,99.5
2018-11-25T04:21:16.893Z,99.5
2018-11-25T04:22:17.172Z,99.6
2018-11-25T04:23:16.443Z,99.5
2018-11-25T04:24:16.708Z,99.5
2018-11-25T04:25:16.981Z,99.5
2018-11-25T04:26:17.245Z,99.5
2018-11-25T04:27:16.525Z,99.5
2018-11-25T04:28:16.796Z,99.5
2018-11-25T04:29:17.081Z,99.5
2018-11-25T04:30:16.374Z,99.5
2018-11-25T04:31:16.420Z,99.5
2018-11-25T04:32:16.685Z,99.5
2018-11-25T04:33:16.957Z,99.5
2018-11-25T04:34:17.244Z,99.5
2018-11-25T04:35:16.538Z,99.5
2018-11-25T04:36:16.817Z,99.5
2018-11-25T04:37:17.092Z,99.5
2018-11-25T04:38:16.348Z,99.5
2018-11-25T04:39:16.601Z,99.5
2018-11-25T04:40:16.896Z,99.5
2018-11-25T04:41:16.930Z,99.5
2018-11-25T04:42:17.209Z,99.5
2018-11-25T04:43:16.467Z,99.5
2018-11-25T04:44:16.728Z,99.5
2018-11-25T04:45:17.011Z,99.5
2018-11-25T04:46:16.291Z,99.5
2018-11-25T04:47:16.574Z,99.6
2018-11-25T04:48:16.842Z,99.6
2018-11-25T04:49:17.388Z,99.5
2018-11-25T04:50:16.680Z,99.5
2018-11-25T04:51:16.747Z,99.5
2018-11-25T04:52:17.017Z,99.5
2018-11-25T04:53:16.286Z,99.6
2018-11-25T04:54:16.560Z,99.6
2018-11-25T04:55:16.814Z,99.6
2018-11-25T04:56:17.080Z,99.7
2018-11-25T04:57:16.370Z,99.6
2018-11-25T04:58:16.638Z,99.7
2018-11-25T04:59:16.898Z,99.7
2018-11-25T05:00:17.168Z,99.7
2018-11-25T05:01:17.242Z,99.6
2018-11-25T05:02:16.519Z,99.6
2018-11-25T05:03:16.780Z,99.7
2018-11-25T05:04:17.305Z,99.7
2018-11-25T05:05:16.602Z,99.8
2018-11-25T05:06:16.873Z,99.8
2018-11-25T05:07:17.118Z,99.9
2018-11-25T05:08:16.384Z,99.8
2018-11-25T05:09:16.651Z,99.8
2018-11-25T05:10:16.950Z,99.8
2018-11-25T05:11:16.979Z,99.7
2018-11-25T05:12:17.268Z,99.8
2018-11-25T05:13:16.558Z,99.8
2018-11-25T05:14:16.829Z,99.8
2018-11-25T05:15:17.112Z,99.8
2018-11-25T05:16:16.400Z,99.7
2018-11-25T05:17:16.659Z,99.7
2018-11-25T05:18:16.928Z,99.7
2018-11-25T05:19:17.205Z,99.8
2018-11-25T05:20:16.472Z,99.8
2018-11-25T05:21:16.604Z,99.8
2018-11-25T05:22:16.865Z,99.8
2018-11-25T05:23:17.148Z,99.8
2018-11-25T05:24:16.418Z,99.8
2018-11-25T05:25:16.695Z,99.8
2018-11-25T05:26:16.996Z,99.8
2018-11-25T05:27:16.262Z,99.8
2018-11-25T05:28:16.545Z,99.8
2018-11-25T05:29:16.812Z,99.8
2018-11-25T05:30:17.099Z,99.8
2018-11-25T05:31:17.171Z,99.8
2018-11-25T05:32:16.432Z,99.8
2018-11-25T05:33:16.710Z,99.8
2018-11-25T05:34:16.964Z,99.8
2018-11-25T05:35:17.233Z,99.7
2018-11-25T05:36:16.506Z,99.7
2018-11-25T05:37:16.758Z,99.8
2018-11-25T05:38:17.032Z,99.7
2018-11-25T05:39:16.295Z,99.7
2018-11-25T05:40:16.593Z,99.7
2018-11-25T05:41:16.621Z,99.7
2018-11-25T05:42:16.877Z,99.7
2018-11-25T05:43:17.148Z,99.8
2018-11-25T05:44:16.403Z,99.8
2018-11-25T05:45:16.672Z,99.7
2018-11-25T05:46:16.934Z,99.7
2018-11-25T05:47:17.209Z,99.7
2018-11-25T05:48:16.478Z,99.8
2018-11-25T05:49:16.739Z,99.8
2018-11-25T05:50:17.051Z,99.8
2018-11-25T05:51:17.059Z,99.8
2018-11-25T05:52:16.328Z,99.8
2018-11-25T05:53:16.600Z,99.9
2018-11-25T05:54:16.865Z,99.8
2018-11-25T05:55:17.141Z,99.9
2018-11-25T05:56:16.406Z,99.9
2018-11-25T05:57:16.678Z,99.9
2018-11-25T05:58:16.946Z,99.9
2018-11-25T05:59:17.212Z,99.8
2018-11-25T06:00:16.498Z,99.8
2018-11-25T06:01:16.555Z,99.8
2018-11-25T06:02:16.818Z,99.9
2018-11-25T06:03:17.083Z,100.0
2018-11-25T06:04:16.350Z,99.9
2018-11-25T06:05:16.626Z,99.9
2018-11-25T06:06:16.895Z,99.9
2018-11-25T06:07:17.173Z,99.9
2018-11-25T06:08:16.441Z,99.8
2018-11-25T06:09:16.720Z,99.9
2018-11-25T06:10:16.998Z,99.8
2018-11-25T06:11:17.040Z,99.8
2018-11-25T06:12:16.308Z,99.8
2018-11-25T06:13:16.577Z,99.9
2018-11-25T06:14:16.844Z,99.8
2018-11-25T06:15:17.113Z,99.8
2018-11-25T06:16:16.372Z,99.7
2018-11-25T06:17:16.662Z,99.8
2018-11-25T06:18:16.938Z,99.8
2018-11-25T06:19:17.220Z,99.8
2018-11-25T06:20:16.491Z,99.8
2018-11-25T06:21:16.582Z,99.8
2018-11-25T06:22:16.846Z,99.8
2018-11-25T06:23:17.117Z,99.8
2018-11-25T06:24:16.383Z,99.8
2018-11-25T06:25:16.684Z,99.8
2018-11-25T06:26:16.960Z,99.6
2018-11-25T06:27:17.226Z,99.6
2018-11-25T06:28:16.494Z,99.7
2018-11-25T06:29:16.757Z,99.7
2018-11-25T06:30:17.058Z,99.8
2018-11-25T06:31:17.089Z,99.8
2018-11-25T06:32:16.353Z,99.8
2018-11-25T06:33:16.635Z,99.7
2018-11-25T06:34:16.903Z,99.8
2018-11-25T06:35:17.217Z,99.8
2018-11-25T06:36:16.523Z,99.8
2018-11-25T06:37:16.790Z,99.8
2018-11-25T06:38:17.054Z,99.7
2018-11-25T06:39:16.320Z,99.6
2018-11-25T06:40:16.599Z,99.5
2018-11-25T06:41:16.659Z,99.5
2018-11-25T06:42:16.934Z,99.4
2018-11-25T06:43:17.207Z,99.5
2018-11-25T06:44:16.495Z,99.5
2018-11-25T06:45:16.782Z,99.6
2018-11-25T06:46:17.059Z,99.6
2018-11-25T06:47:16.341Z,99.6
2018-11-25T06:48:16.605Z,99.8
2018-11-25T06:49:16.865Z,99.8
2018-11-25T06:50:17.148Z,99.8
2018-11-25T06:51:17.199Z,99.8
2018-11-25T06:52:16.472Z,99.8
2018-11-25T06:53:16.737Z,99.8
2018-11-25T06:54:17.027Z,99.8
2018-11-25T06:55:16.293Z,99.8
2018-11-25T06:56:16.567Z,99.7
2018-11-25T06:57:16.836Z,99.7
2018-11-25T06:58:17.104Z,99.7
2018-11-25T06:59:16.373Z,99.7
2018-11-25T07:00:16.671Z,99.8
2018-11-25T07:01:16.707Z,99.8
2018-11-25T07:02:16.970Z,99.8
2018-11-25T07:03:17.251Z,99.8
2018-11-25T07:04:16.538Z,99.7
2018-11-25T07:05:16.815Z,99.7
2018-11-25T07:06:17.095Z,99.7
2018-11-25T07:07:16.356Z,99.7
2018-11-25T07:08:16.625Z,99.6
2018-11-25T07:09:16.908Z,99.7
2018-11-25T07:10:17.201Z,99.7
2018-11-25T07:11:17.259Z,99.7
2018-11-25T07:12:16.546Z,99.8
2018-11-25T07:13:16.806Z,99.8
2018-11-25T07:14:17.090Z,99.7
2018-11-25T07:15:16.360Z,99.4
2018-11-25T07:16:16.624Z,99.6
2018-11-25T07:17:16.901Z,99.5
2018-11-25T07:18:17.164Z,99.6
2018-11-25T07:19:16.428Z,99.7
2018-11-25T07:20:16.705Z,99.5
2018-11-25T07:21:16.762Z,99.5
2018-11-25T07:22:17.027Z,99.5
2018-11-25T07:23:16.303Z,99.6
2018-11-25T07:24:16.573Z,99.6
2018-11-25T07:25:16.839Z,99.5
2018-11-25T07:26:17.113Z,99.5
2018-11-25T07:27:16.378Z,99.5
2018-11-25T07:28:18.837Z,99.5
2018-11-25T07:29:17.169Z,99.5
2018-11-25T07:30:16.456Z,99.5
2018-11-25T07:31:16.518Z,99.6
2018-11-25T07:32:16.790Z,99.6
2018-11-25T07:33:17.060Z,99.7
2018-11-25T07:34:16.353Z,99.6
2018-11-25T07:35:16.699Z,99.6
2018-11-25T07:36:16.985Z,99.7
2018-11-25T07:37:17.257Z,99.7
2018-11-25T07:38:16.529Z,99.7
2018-11-25T07:39:16.797Z,99.7
2018-11-25T07:40:17.085Z,99.8
2018-11-25T07:41:17.161Z,99.7
2018-11-25T07:42:16.432Z,99.8
2018-11-25T07:43:16.700Z,99.8
2018-11-25T07:44:16.972Z,99.8
2018-11-25T07:45:17.244Z,99.8
2018-11-25T07:46:16.533Z,99.8
2018-11-25T07:47:16.812Z,99.8
2018-11-25T07:48:17.096Z,99.8
2018-11-25T07:49:16.364Z,99.8
2018-11-25T07:50:16.650Z,99.8
2018-11-25T07:51:16.704Z,99.8
2018-11-25T07:52:16.974Z,99.8
2018-11-25T07:53:17.235Z,99.8
2018-11-25T07:54:16.511Z,99.8
2018-11-25T07:55:16.783Z,99.7
2018-11-25T07:56:17.051Z,99.6
2018-11-25T07:57:16.320Z,99.6
2018-11-25T07:58:16.602Z,99.7
2018-11-25T07:59:16.866Z,99.5
2018-11-25T08:00:17.242Z,99.6
2018-11-25T08:01:17.232Z,99.6
2018-11-25T08:02:16.503Z,99.5
2018-11-25T08:03:16.769Z,99.5
2018-11-25T08:04:17.047Z,99.5
2018-11-25T08:05:16.316Z,99.5
2018-11-25T08:06:16.592Z,99.4
2018-11-25T08:07:16.856Z,99.5
2018-11-25T08:08:17.130Z,99.4
2018-11-25T08:09:16.418Z,99.4
2018-11-25T08:10:16.709Z,99.4
2018-11-25T08:11:16.769Z,99.4
2018-11-25T08:12:17.031Z,99.3
2018-11-25T08:13:16.300Z,99.4
2018-11-25T08:14:16.575Z,99.2
2018-11-25T08:15:16.861Z,99.2
2018-11-25T08:16:17.126Z,99.2
2018-11-25T08:17:16.390Z,99.2
2018-11-25T08:18:16.659Z,99.3
2018-11-25T08:19:16.932Z,99.3
2018-11-25T08:20:17.232Z,99.2
2018-11-25T08:21:17.254Z,99.2
2018-11-25T08:22:16.522Z,99.2
2018-11-25T08:23:16.787Z,99.2
2018-11-25T08:24:17.248Z,99.1
2018-11-25T08:25:16.519Z,99.0
2018-11-25T08:26:16.788Z,99.0
2018-11-25T08:27:17.050Z,99.0
2018-11-25T08:28:16.324Z,99.1
2018-11-25T08:29:16.591Z,99.2
2018-11-25T08:30:16.870Z,99.1
2018-11-25T08:31:16.924Z,99.1
2018-11-25T08:32:17.237Z,99.2
2018-11-25T08:33:16.512Z,99.0
2018-11-25T08:34:16.770Z,99.0
2018-11-25T08:35:17.064Z,99.0
2018-11-25T08:36:16.348Z,99.0
2018-11-25T08:37:16.629Z,99.0
2018-11-25T08:38:16.906Z,99.0
2018-11-25T08:39:17.180Z,99.0
2018-11-25T08:40:16.466Z,98.7
2018-11-25T08:41:16.512Z,98.7
2018-11-25T08:42:16.780Z,98.8
2018-11-25T08:43:17.054Z,98.8
2018-11-25T08:44:16.320Z,98.8
2018-11-25T08:45:16.609Z,98.8
2018-11-25T08:46:16.876Z,98.8
2018-11-25T08:47:17.147Z,98.9
2018-11-25T08:48:16.412Z,98.8
2018-11-25T08:49:16.681Z,98.8
2018-11-25T08:50:16.963Z,98.9
2018-11-25T08:51:17.030Z,99.0
2018-11-25T08:52:16.302Z,98.8
2018-11-25T08:53:16.573Z,98.8
2018-11-25T08:54:16.843Z,98.8
2018-11-25T08:55:17.116Z,98.8
2018-11-25T08:56:16.396Z,98.8
2018-11-25T08:57:16.662Z,98.8
2018-11-25T08:58:16.931Z,98.8
2018-11-25T08:59:17.208Z,98.8
2018-11-25T09:00:16.477Z,98.8
2018-11-25T09:01:16.555Z,98.8
2018-11-25T09:02:16.828Z,98.8
2018-11-25T09:03:17.094Z,98.8
2018-11-25T09:04:16.361Z,98.8
2018-11-25T09:05:16.634Z,98.7
2018-11-25T09:06:16.918Z,98.7
2018-11-25T09:07:17.186Z,98.7
2018-11-25T09:08:16.446Z,98.8
2018-11-25T09:09:16.715Z,98.8
2018-11-25T09:10:16.992Z,98.8
2018-11-25T09:11:17.056Z,98.8
2018-11-25T09:12:16.327Z,98.8
2018-11-25T09:13:16.593Z,98.8
2018-11-25T09:14:16.865Z,98.5
2018-11-25T09:15:17.140Z,98.5
2018-11-25T09:16:16.416Z,98.3
2018-11-25T09:17:16.697Z,98.3
2018-11-25T09:18:16.974Z,98.4
2018-11-25T09:19:17.244Z,98.4
2018-11-25T09:20:16.523Z,98.4
2018-11-25T09:21:16.589Z,98.4
2018-11-25T09:22:16.852Z,98.5
2018-11-25T09:23:17.115Z,98.5
2018-11-25T09:24:16.390Z,98.5
2018-11-25T09:25:16.661Z,98.3
2018-11-25T09:26:16.945Z,98.5
2018-11-25T09:27:17.221Z,98.5
2018-11-25T09:28:16.490Z,98.5
2018-11-25T09:29:16.762Z,98.2
2018-11-25T09:30:17.056Z,98.2
2018-11-25T09:31:17.105Z,98.2
2018-11-25T09:32:23.224Z,98.2
2018-11-25T09:33:16.516Z,98.3
2018-11-25T09:34:16.776Z,98.2
2018-11-25T09:35:17.054Z,98.3
2018-11-25T09:36:16.324Z,98.2
2018-11-25T09:37:16.600Z,98.2
2018-11-25T09:38:16.876Z,98.3
2018-11-25T09:39:17.428Z,98.2
2018-11-25T09:40:16.703Z,98.1
2018-11-25T09:41:16.770Z,98.1
2018-11-25T09:42:17.042Z,98.0
2018-11-25T09:43:16.312Z,97.9
2018-11-25T09:44:16.579Z,97.8
2018-11-25T09:45:16.877Z,98.0
2018-11-25T09:46:17.152Z,98.0
2018-11-25T09:47:16.411Z,98.0
2018-11-25T09:48:16.683Z,97.9
2018-11-25T09:49:16.949Z,97.9
2018-11-25T09:50:17.242Z,97.8
2018-11-25T09:51:16.276Z,97.8
2018-11-25T09:52:16.550Z,97.8
2018-11-25T09:53:16.823Z,98.0
2018-11-25T09:54:17.088Z,97.9
2018-11-25T09:55:16.362Z,97.6
2018-11-25T09:56:16.674Z,97.6
2018-11-25T09:57:16.940Z,97.7
2018-11-25T09:58:17.214Z,97.7
2018-11-25T09:59:16.494Z,98.0
2018-11-25T10:00:16.767Z,97.9
2018-11-25T10:01:16.828Z,97.9
2018-11-25T10:02:17.097Z,97.7
2018-11-25T10:03:16.374Z,97.8
2018-11-25T10:04:16.642Z,97.8
2018-11-25T10:05:16.929Z,97.8
2018-11-25T10:06:17.211Z,97.8
2018-11-25T10:07:16.485Z,98.0
2018-11-25T10:08:16.751Z,97.8
2018-11-25T10:09:17.023Z,97.6
2018-11-25T10:10:16.296Z,97.7
2018-11-25T10:11:16.349Z,97.7
2018-11-25T10:12:16.619Z,97.7
2018-11-25T10:13:16.890Z,97.5
2018-11-25T10:14:17.163Z,97.5
2018-11-25T10:15:16.452Z,97.7
2018-11-25T10:16:16.732Z,97.7
2018-11-25T10:17:16.996Z,97.3
2018-11-25T10:18:16.270Z,97.3
2018-11-25T10:19:16.547Z,97.3
2018-11-25T10:20:16.838Z,97.6
2018-11-25T10:21:16.889Z,97.5
2018-11-25T10:22:17.152Z,97.2
2018-11-25T10:23:16.420Z,96.9
2018-11-25T10:24:16.679Z,96.9
2018-11-25T10:25:16.966Z,96.7
2018-11-25T10:26:17.237Z,96.8
2018-11-25T10:27:16.510Z,96.7
2018-11-25T10:28:16.776Z,96.7
2018-11-25T10:29:17.046Z,96.8
2018-11-25T10:30:16.347Z,96.8
2018-11-25T10:31:16.396Z,96.7
2018-11-25T10:32:16.661Z,96.7
2018-11-25T10:33:16.930Z,96.8
2018-11-25T10:34:17.200Z,96.8
2018-11-25T10:35:16.474Z,96.8
2018-11-25T10:36:16.757Z,96.8
2018-11-25T10:37:17.022Z,96.9
2018-11-25T10:38:16.298Z,96.8
2018-11-25T10:39:16.565Z,97.0
2018-11-25T10:40:16.847Z,97.1
2018-11-25T10:41:16.907Z,97.2
2018-11-25T10:42:17.177Z,97.2
2018-11-25T10:43:16.450Z,97.2
2018-11-25T10:44:16.723Z,97.3
2018-11-25T10:45:17.016Z,97.2
2018-11-25T10:46:16.284Z,97.1
2018-11-25T10:47:16.559Z,96.6
2018-11-25T10:48:16.827Z,96.9
2018-11-25T10:49:17.096Z,96.6
2018-11-25T10:50:16.373Z,96.7
2018-11-25T10:51:16.444Z,96.8
2018-11-25T10:52:16.703Z,96.6
2018-11-25T10:53:16.979Z,96.2
2018-11-25T10:54:17.247Z,96.2
2018-11-25T10:55:16.533Z,96.2
2018-11-25T10:56:16.974Z,96.2
2018-11-25T10:57:17.266Z,96.7
2018-11-25T10:58:16.532Z,96.3
2018-11-25T10:59:16.805Z,96.0
2018-11-25T11:00:17.109Z,95.5
2018-11-25T11:01:17.142Z,95.9
2018-11-25T11:02:16.420Z,95.5
2018-11-25T11:03:16.702Z,95.2
2018-11-25T11:04:16.970Z,95.4
2018-11-25T11:05:17.236Z,95.5
2018-11-25T11:06:16.510Z,95.7
2018-11-25T11:07:16.780Z,95.8
2018-11-25T11:08:17.051Z,96.3
2018-11-25T11:09:16.326Z,96.0
2018-11-25T11:10:16.609Z,95.6
2018-11-25T11:11:16.650Z,95.4
2018-11-25T11:12:16.941Z,96.0
2018-11-25T11:13:17.210Z,96.0
2018-11-25T11:14:16.496Z,95.6
2018-11-25T11:15:16.760Z,95.6
2018-11-25T11:16:17.024Z,95.3
2018-11-25T11:17:16.283Z,95.2
2018-11-25T11:18:16.559Z,95.2
2018-11-25T11:19:16.832Z,95.4
2018-11-25T11:20:17.106Z,94.9
2018-11-25T11:21:17.153Z,95.0
2018-11-25T11:22:16.432Z,95.4
2018-11-25T11:23:16.708Z,95.5
2018-11-25T11:24:16.974Z,95.5
2018-11-25T11:25:17.259Z,95.2
2018-11-25T11:26:16.529Z,95.3
2018-11-25T11:27:16.803Z,95.2
2018-11-25T11:28:17.073Z,95.1
2018-11-25T11:29:16.355Z,95.2
2018-11-25T11:30:16.642Z,95.2
2018-11-25T11:31:16.699Z,94.5
2018-11-25T11:32:16.963Z,94.8
2018-11-25T11:33:17.232Z,95.2
2018-11-25T11:34:16.514Z,95.1
2018-11-25T11:35:16.776Z,95.0
2018-11-25T11:36:17.055Z,95.3
2018-11-25T11:37:16.323Z,95.1
2018-11-25T11:38:16.590Z,95.2
2018-11-25T11:39:16.861Z,95.2
2018-11-25T11:40:17.139Z,96.0
2018-11-25T11:41:17.204Z,95.5
2018-11-25T11:42:16.482Z,95.5
2018-11-25T11:43:16.756Z,95.3
2018-11-25T11:44:17.022Z,95.3
2018-11-25T11:45:16.291Z,95.2
2018-11-25T11:46:16.558Z,94.9
2018-11-25T11:47:16.828Z,95.2
2018-11-25T11:48:17.093Z,94.9
2018-11-25T11:49:16.361Z,94.7
2018-11-25T11:50:16.930Z,94.8
2018-11-25T11:51:16.695Z,94.5
2018-11-25T11:52:16.989Z,94.2
2018-11-25T11:53:17.262Z,94.1
2018-11-25T11:54:16.540Z,94.5
2018-11-25T11:55:16.829Z,94.2
2018-11-25T11:56:17.104Z,94.2
2018-11-25T11:57:16.372Z,94.0
2018-11-25T11:58:16.653Z,93.8
2018-11-25T11:59:16.917Z,93.9
2018-11-25T12:00:17.215Z,93.5
2018-11-25T12:01:17.240Z,93.7
2018-11-25T12:02:16.519Z,93.0
2018-11-25T12:03:16.792Z,93.2
2018-11-25T12:04:17.063Z,93.3
2018-11-25T12:05:16.341Z,93.4
2018-11-25T12:06:16.622Z,93.8
2018-11-25T12:07:16.908Z,93.4
2018-11-25T12:08:17.173Z,93.1
2018-11-25T12:09:16.444Z,93.2
2018-11-25T12:10:16.738Z,93.6
2018-11-25T12:11:16.781Z,93.8
2018-11-25T12:12:17.046Z,93.2
2018-11-25T12:13:16.310Z,93.3
2018-11-25T12:14:16.577Z,93.4
2018-11-25T12:15:16.853Z,92.9
2018-11-25T12:16:17.128Z,92.8
2018-11-25T12:17:16.391Z,92.9
2018-11-25T12:18:16.673Z,93.0
2018-11-25T12:19:16.946Z,93.0
2018-11-25T12:20:21.604Z,92.9
2018-11-25T12:21:16.283Z,93.3
2018-11-25T12:22:16.552Z,93.3
2018-11-25T12:23:16.816Z,93.6
2018-11-25T12:24:17.096Z,93.3
2018-11-25T12:25:16.443Z,93.3
2018-11-25T12:26:16.713Z,92.9
2018-11-25T12:27:16.980Z,93.2
2018-11-25T12:28:17.259Z,93.7
2018-11-25T12:29:16.544Z,92.8
2018-11-25T12:30:16.830Z,93.0
2018-11-25T12:31:16.876Z,92.6
2018-11-25T12:32:17.146Z,92.4
2018-11-25T12:33:16.410Z,92.2
2018-11-25T12:34:16.683Z,92.4
2018-11-25T12:35:16.970Z,92.5
2018-11-25T12:36:17.238Z,91.8
2018-11-25T12:37:16.516Z,92.1
2018-11-25T12:38:16.790Z,91.0
2018-11-25T12:39:17.053Z,90.9
2018-11-25T12:40:16.323Z,91.5
2018-11-25T12:41:16.398Z,91.2
2018-11-25T12:42:16.674Z,91.1
2018-11-25T12:43:16.950Z,91.3
2018-11-25T12:44:17.222Z,91.9
2018-11-25T12:45:16.480Z,91.6
2018-11-25T12:46:16.753Z,91.5
2018-11-25T12:47:17.025Z,91.5
2018-11-25T12:48:16.289Z,91.7
2018-11-25T12:49:16.554Z,92.2
2018-11-25T12:50:16.875Z,92.0
2018-11-25T12:51:16.887Z,91.5
2018-11-25T12:52:17.153Z,92.5
2018-11-25T12:53:16.420Z,92.0
2018-11-25T12:54:16.693Z,92.2
2018-11-25T12:55:16.984Z,92.5
2018-11-25T12:56:16.250Z,92.2
2018-11-25T12:57:16.516Z,92.2
2018-11-25T12:58:16.774Z,92.2
2018-11-25T12:59:17.041Z,92.6
2018-11-25T13:00:16.322Z,92.6
2018-11-25T13:01:16.370Z,92.7
2018-11-25T13:02:16.659Z,92.7
2018-11-25T13:03:16.936Z,92.5
2018-11-25T13:04:17.399Z,92.5
2018-11-25T13:05:16.668Z,92.6
2018-11-25T13:06:16.941Z,93.0
2018-11-25T13:07:17.216Z,92.7
2018-11-25T13:08:16.485Z,92.5
2018-11-25T13:09:16.754Z,92.5
2018-11-25T13:10:17.382Z,92.0
2018-11-25T13:11:17.083Z,92.2
2018-11-25T13:12:16.352Z,92.1
2018-11-25T13:13:16.622Z,92.1
2018-11-25T13:14:16.902Z,92.3
2018-11-25T13:15:17.201Z,91.2
2018-11-25T13:16:16.463Z,90.7
2018-11-25T13:17:16.729Z,91.0